Terminal Aerodrome Forecast
Issued by NWS Caribou, ME

Home | Current Version | Previous Version | Text Only | Print | Product List | Glossary On
Versions: 1 2 3 4 5 6 7 8 9 10 11 12 13
325
FTUS41 KCAR 251721
TAFBGR
TAF
KBGR 251721Z 2518/2618 19007KT P6SM FEW100 BKN200
     FM260200 17006KT 4SM SHRA BR OVC020
     FM260400 17005KT 3SM SHRA BR OVC009
     FM260700 18004KT 1SM BR OVC003
     FM261200 24004KT P6SM BKN015
     FM261400 27007KT P6SM SCT080=

USA.gov is the U.S. government's official web portal to all federal, state and local government web resources and services.